sensor_id;sensor_type;location;lat;lon;timestamp;pressure;altitude;pressure_sealevel;temperature;humidity
69058;BME280;56128;37.534;-122.308;2023-03-22T00:01:11;98962.94;;;7.43;100.00
69058;BME280;56128;37.534;-122.308;2023-03-22T00:03:38;99004.38;;;7.46;100.00
69058;BME280;56128;37.534;-122.308;2023-03-22T00:06:04;99025.69;;;7.46;100.00
69058;BME280;56128;37.534;-122.308;2023-03-22T00:08:30;99007.91;;;7.37;100.00
69058;BME280;56128;37.534;-122.308;2023-03-22T00:10:57;99030.16;;;7.36;100.00
69058;BME280;56128;37.534;-122.308;2023-03-22T00:13:23;99056.22;;;7.32;100.00
69058;BME280;56128;37.534;-122.308;2023-03-22T00:15:49;99064.59;;;7.27;100.00
69058;BME280;56128;37.534;-122.308;2023-03-22T00:18:16;99064.44;;;7.19;100.00
69058;BME280;56128;37.534;-122.308;2023-03-22T00:20:55;99073.56;;;7.17;100.00
69058;BME280;56128;37.534;-122.308;2023-03-22T00:23:23;99093.00;;;7.17;100.00
69058;BME280;56128;37.534;-122.308;2023-03-22T00:25:50;99100.41;;;7.13;100.00
69058;BME280;56128;37.534;-122.308;2023-03-22T00:28:17;99099.97;;;7.08;100.00
69058;BME280;56128;37.534;-122.308;2023-03-22T00:30:54;99131.72;;;7.00;100.00
69058;BME280;56128;37.534;-122.308;2023-03-22T00:33:21;99137.16;;;6.98;100.00
69058;BME280;56128;37.534;-122.308;2023-03-22T00:36:02;99132.53;;;6.91;100.00
69058;BME280;56128;37.534;-122.308;2023-03-22T00:38:29;99138.38;;;6.85;100.00
69058;BME280;56128;37.534;-122.308;2023-03-22T00:41:16;99155.16;;;6.85;100.00
69058;BME280;56128;37.534;-122.308;2023-03-22T00:43:42;99160.91;;;6.80;100.00
69058;BME280;56128;37.534;-122.308;2023-03-22T00:46:10;99166.34;;;6.79;100.00
69058;BME280;56128;37.534;-122.308;2023-03-22T00:48:37;99185.34;;;6.74;100.00
69058;BME280;56128;37.534;-122.308;2023-03-22T00:51:04;99179.44;;;6.71;100.00
69058;BME280;56128;37.534;-122.308;2023-03-22T00:53:31;99195.91;;;6.64;100.00
69058;BME280;56128;37.534;-122.308;2023-03-22T00:55:59;99189.78;;;6.64;100.00
69058;BME280;56128;37.534;-122.308;2023-03-22T00:58:25;99215.50;;;6.63;100.00
69058;BME280;56128;37.534;-122.308;2023-03-22T01:00:52;99196.13;;;6.52;100.00
69058;BME280;56128;37.534;-122.308;2023-03-22T01:03:18;99218.06;;;6.54;100.00
69058;BME280;56128;37.534;-122.308;2023-03-22T01:09:39;99229.34;;;6.46;100.00
69058;BME280;56128;37.534;-122.308;2023-03-22T01:12:05;99233.75;;;6.36;100.00
69058;BME280;56128;37.534;-122.308;2023-03-22T01:14:31;99234.59;;;6.36;100.00
69058;BME280;56128;37.534;-122.308;2023-03-22T01:16:57;99234.50;;;6.38;100.00
69058;BME280;56128;37.534;-122.308;2023-03-22T01:19:24;99253.09;;;6.38;100.00
69058;BME280;56128;37.534;-122.308;2023-03-22T01:21:52;99284.97;;;6.38;100.00
69058;BME280;56128;37.534;-122.308;2023-03-22T01:24:19;99271.91;;;6.34;100.00
69058;BME280;56128;37.534;-122.308;2023-03-22T01:26:45;99287.16;;;6.32;100.00
69058;BME280;56128;37.534;-122.308;2023-03-22T01:29:12;99301.88;;;6.37;100.00
69058;BME280;56128;37.534;-122.308;2023-03-22T01:31:38;99317.22;;;6.33;100.00
69058;BME280;56128;37.534;-122.308;2023-03-22T01:34:04;99309.88;;;6.25;100.00
69058;BME280;56128;37.534;-122.308;2023-03-22T01:36:30;99328.00;;;6.20;100.00
69058;BME280;56128;37.534;-122.308;2023-03-22T01:38:57;99331.50;;;6.21;100.00
69058;BME280;56128;37.534;-122.308;2023-03-22T01:41:24;99335.13;;;6.20;100.00
69058;BME280;56128;37.534;-122.308;2023-03-22T01:46:35;99346.34;;;6.12;100.00
69058;BME280;56128;37.534;-122.308;2023-03-22T01:49:03;99361.81;;;6.18;100.00
69058;BME280;56128;37.534;-122.308;2023-03-22T01:51:30;99350.44;;;6.16;100.00
69058;BME280;56128;37.534;-122.308;2023-03-22T01:54:09;99356.50;;;6.18;100.00
69058;BME280;56128;37.534;-122.308;2023-03-22T01:56:39;99378.09;;;6.13;100.00
69058;BME280;56128;37.534;-122.308;2023-03-22T01:59:08;99384.97;;;6.16;100.00
69058;BME280;56128;37.534;-122.308;2023-03-22T02:01:36;99384.41;;;6.12;100.00
69058;BME280;56128;37.534;-122.308;2023-03-22T02:04:11;99392.25;;;6.14;100.00
69058;BME280;56128;37.534;-122.308;2023-03-22T02:06:40;99412.53;;;6.15;100.00
69058;BME280;56128;37.534;-122.308;2023-03-22T02:09:09;99416.28;;;6.12;100.00
69058;BME280;56128;37.534;-122.308;2023-03-22T02:11:41;99417.31;;;6.10;100.00
69058;BME280;56128;37.534;-122.308;2023-03-22T02:17:29;99428.09;;;6.08;100.00
69058;BME280;56128;37.534;-122.308;2023-03-22T02:23:19;99437.00;;;6.07;100.00
69058;BME280;56128;37.534;-122.308;2023-03-22T02:29:05;99445.59;;;6.11;100.00
69058;BME280;56128;37.534;-122.308;2023-03-22T02:40:24;99485.81;;;6.17;100.00
69058;BME280;56128;37.534;-122.308;2023-03-22T02:45:51;99487.97;;;6.12;100.00
69058;BME280;56128;37.534;-122.308;2023-03-22T02:48:36;99463.56;;;6.07;100.00
69058;BME280;56128;37.534;-122.308;2023-03-22T02:53:54;99508.13;;;6.15;100.00
69058;BME280;56128;37.534;-122.308;2023-03-22T02:56:33;99506.44;;;6.14;100.00
69058;BME280;56128;37.534;-122.308;2023-03-22T02:59:03;99498.09;;;6.18;100.00
69058;BME280;56128;37.534;-122.308;2023-03-22T03:01:38;99505.22;;;6.18;100.00
69058;BME280;56128;37.534;-122.308;2023-03-22T03:04:15;99518.50;;;6.18;100.00
69058;BME280;56128;37.534;-122.308;2023-03-22T03:06:45;99513.06;;;6.20;100.00
69058;BME280;56128;37.534;-122.308;2023-03-22T03:09:15;99524.06;;;6.15;100.00
69058;BME280;56128;37.534;-122.308;2023-03-22T03:11:46;99531.66;;;6.20;100.00
69058;BME280;56128;37.534;-122.308;2023-03-22T03:14:28;99538.66;;;6.21;100.00
69058;BME280;56128;37.534;-122.308;2023-03-22T03:17:12;99539.53;;;6.21;100.00
69058;BME280;56128;37.534;-122.308;2023-03-22T03:19:56;99541.44;;;6.19;100.00
69058;BME280;56128;37.534;-122.308;2023-03-22T03:22:42;99552.91;;;6.20;100.00
69058;BME280;56128;37.534;-122.308;2023-03-22T03:25:21;99555.47;;;6.21;100.00
69058;BME280;56128;37.534;-122.308;2023-03-22T03:27:57;99564.28;;;6.22;100.00
69058;BME280;56128;37.534;-122.308;2023-03-22T03:30:52;99569.25;;;6.26;100.00
69058;BME280;56128;37.534;-122.308;2023-03-22T03:33:22;99561.97;;;6.28;100.00
69058;BME280;56128;37.534;-122.308;2023-03-22T03:35:59;99579.50;;;6.31;100.00
69058;BME280;56128;37.534;-122.308;2023-03-22T03:38:29;99576.97;;;6.29;100.00
69058;BME280;56128;37.534;-122.308;2023-03-22T03:41:01;99598.09;;;6.31;100.00
69058;BME280;56128;37.534;-122.308;2023-03-22T03:43:29;99603.06;;;6.36;100.00
69058;BME280;56128;37.534;-122.308;2023-03-22T03:45:56;99601.34;;;6.34;100.00
69058;BME280;56128;37.534;-122.308;2023-03-22T03:48:27;99603.66;;;6.39;100.00
69058;BME280;56128;37.534;-122.308;2023-03-22T03:50:55;99601.34;;;6.34;100.00
69058;BME280;56128;37.534;-122.308;2023-03-22T03:53:22;99625.13;;;6.36;100.00
69058;BME280;56128;37.534;-122.308;2023-03-22T03:55:49;99613.69;;;6.36;100.00
69058;BME280;56128;37.534;-122.308;2023-03-22T03:58:15;99621.31;;;6.40;100.00
69058;BME280;56128;37.534;-122.308;2023-03-22T04:00:42;99629.16;;;6.42;100.00
69058;BME280;56128;37.534;-122.308;2023-03-22T04:03:08;99638.34;;;6.49;100.00
69058;BME280;56128;37.534;-122.308;2023-03-22T04:05:34;99647.78;;;6.53;100.00
69058;BME280;56128;37.534;-122.308;2023-03-22T04:08:01;99646.56;;;6.57;100.00
69058;BME280;56128;37.534;-122.308;2023-03-22T04:10:27;99656.97;;;6.60;100.00
69058;BME280;56128;37.534;-122.308;2023-03-22T04:12:53;99667.47;;;6.62;100.00
69058;BME280;56128;37.534;-122.308;2023-03-22T04:15:19;99681.59;;;6.62;100.00
69058;BME280;56128;37.534;-122.308;2023-03-22T04:17:45;99687.66;;;6.64;100.00
69058;BME280;56128;37.534;-122.308;2023-03-22T04:20:12;99689.34;;;6.65;100.00
69058;BME280;56128;37.534;-122.308;2023-03-22T04:22:41;99689.34;;;6.65;100.00
69058;BME280;56128;37.534;-122.308;2023-03-22T04:25:10;99693.47;;;6.70;100.00
69058;BME280;56128;37.534;-122.308;2023-03-22T04:27:39;99700.22;;;6.74;100.00
69058;BME280;56128;37.534;-122.308;2023-03-22T04:30:11;99701.22;;;6.73;100.00
69058;BME280;56128;37.534;-122.308;2023-03-22T04:32:40;99712.56;;;6.75;100.00
69058;BME280;56128;37.534;-122.308;2023-03-22T04:35:07;99727.41;;;6.77;100.00
69058;BME280;56128;37.534;-122.308;2023-03-22T04:37:33;99718.13;;;6.72;100.00
69058;BME280;56128;37.534;-122.308;2023-03-22T04:40:00;99731.91;;;6.77;100.00
69058;BME280;56128;37.534;-122.308;2023-03-22T04:42:26;99738.06;;;6.77;100.00
69058;BME280;56128;37.534;-122.308;2023-03-22T04:44:55;99742.53;;;6.77;100.00
69058;BME280;56128;37.534;-122.308;2023-03-22T04:47:25;99757.63;;;6.76;100.00
69058;BME280;56128;37.534;-122.308;2023-03-22T04:49:51;99743.13;;;6.69;100.00
69058;BME280;56128;37.534;-122.308;2023-03-22T04:52:17;99755.69;;;6.67;100.00
69058;BME280;56128;37.534;-122.308;2023-03-22T04:54:43;99770.44;;;6.71;100.00
69058;BME280;56128;37.534;-122.308;2023-03-22T04:57:10;99763.91;;;6.64;100.00
69058;BME280;56128;37.534;-122.308;2023-03-22T04:59:36;99772.50;;;6.68;100.00
69058;BME280;56128;37.534;-122.308;2023-03-22T05:02:02;99786.25;;;6.61;100.00
69058;BME280;56128;37.534;-122.308;2023-03-22T05:04:29;99777.75;;;6.56;100.00
69058;BME280;56128;37.534;-122.308;2023-03-22T05:06:56;99781.50;;;6.54;100.00
69058;BME280;56128;37.534;-122.308;2023-03-22T05:09:22;99792.03;;;6.55;100.00
69058;BME280;56128;37.534;-122.308;2023-03-22T05:11:48;99807.09;;;6.55;100.00
69058;BME280;56128;37.534;-122.308;2023-03-22T05:14:14;99815.94;;;6.55;100.00
69058;BME280;56128;37.534;-122.308;2023-03-22T05:16:43;99804.81;;;6.50;100.00
69058;BME280;56128;37.534;-122.308;2023-03-22T05:19:09;99820.03;;;6.48;100.00
69058;BME280;56128;37.534;-122.308;2023-03-22T05:21:41;99821.72;;;6.49;100.00
69058;BME280;56128;37.534;-122.308;2023-03-22T05:24:09;99815.03;;;6.43;100.00
69058;BME280;56128;37.534;-122.308;2023-03-22T05:26:36;99827.38;;;6.44;100.00
69058;BME280;56128;37.534;-122.308;2023-03-22T05:29:08;99827.94;;;6.37;100.00
69058;BME280;56128;37.534;-122.308;2023-03-22T05:31:35;99835.91;;;6.37;100.00
69058;BME280;56128;37.534;-122.308;2023-03-22T05:34:02;99848.97;;;6.40;100.00
69058;BME280;56128;37.534;-122.308;2023-03-22T05:36:31;99860.34;;;6.42;100.00
69058;BME280;56128;37.534;-122.308;2023-03-22T05:39:01;99849.91;;;6.39;100.00
69058;BME280;56128;37.534;-122.308;2023-03-22T05:41:28;99866.59;;;6.41;100.00
69058;BME280;56128;37.534;-122.308;2023-03-22T05:43:56;99853.56;;;6.38;100.00
69058;BME280;56128;37.534;-122.308;2023-03-22T05:46:22;99862.81;;;6.32;100.00
69058;BME280;56128;37.534;-122.308;2023-03-22T05:48:49;99862.81;;;6.32;100.00
69058;BME280;56128;37.534;-122.308;2023-03-22T05:51:16;99867.28;;;6.31;100.00
69058;BME280;56128;37.534;-122.308;2023-03-22T05:53:44;99865.47;;;6.32;100.00
69058;BME280;56128;37.534;-122.308;2023-03-22T05:56:10;99872.47;;;6.33;100.00
69058;BME280;56128;37.534;-122.308;2023-03-22T05:58:37;99872.88;;;6.40;100.00
69058;BME280;56128;37.534;-122.308;2023-03-22T06:01:08;99881.72;;;6.40;100.00
69058;BME280;56128;37.534;-122.308;2023-03-22T06:03:37;99881.59;;;6.42;100.00
69058;BME280;56128;37.534;-122.308;2023-03-22T06:06:04;99894.31;;;6.49;100.00
69058;BME280;56128;37.534;-122.308;2023-03-22T06:08:32;99896.75;;;6.53;100.00
69058;BME280;56128;37.534;-122.308;2023-03-22T06:11:02;99905.81;;;6.50;100.00
69058;BME280;56128;37.534;-122.308;2023-03-22T06:13:28;99915.25;;;6.54;100.00
69058;BME280;56128;37.534;-122.308;2023-03-22T06:15:58;99914.69;;;6.62;100.00
69058;BME280;56128;37.534;-122.308;2023-03-22T06:18:26;99917.47;;;6.60;100.00
69058;BME280;56128;37.534;-122.308;2023-03-22T06:20:52;99923.16;;;6.67;100.00
69058;BME280;56128;37.534;-122.308;2023-03-22T06:23:18;99910.94;;;6.64;100.00
69058;BME280;56128;37.534;-122.308;2023-03-22T06:25:45;99932.50;;;6.73;100.00
69058;BME280;56128;37.534;-122.308;2023-03-22T06:28:13;99932.59;;;6.71;100.00
69058;BME280;56128;37.534;-122.308;2023-03-22T06:30:39;99941.88;;;6.65;100.00
69058;BME280;56128;37.534;-122.308;2023-03-22T06:33:05;99938.47;;;6.63;100.00
69058;BME280;56128;37.534;-122.308;2023-03-22T06:35:32;99943.81;;;6.63;100.00
69058;BME280;56128;37.534;-122.308;2023-03-22T06:37:59;99945.75;;;6.61;100.00
69058;BME280;56128;37.534;-122.308;2023-03-22T06:40:26;99940.94;;;6.66;100.00
69058;BME280;56128;37.534;-122.308;2023-03-22T06:42:53;99947.84;;;6.69;100.00
69058;BME280;56128;37.534;-122.308;2023-03-22T06:45:20;99946.75;;;6.72;100.00
69058;BME280;56128;37.534;-122.308;2023-03-22T06:47:46;99944.44;;;6.67;100.00
69058;BME280;56128;37.534;-122.308;2023-03-22T06:50:13;99951.97;;;6.73;100.00
69058;BME280;56128;37.534;-122.308;2023-03-22T06:52:40;99961.75;;;6.73;100.00
69058;BME280;56128;37.534;-122.308;2023-03-22T06:55:07;99966.72;;;6.77;100.00
69058;BME280;56128;37.534;-122.308;2023-03-22T06:57:33;99967.78;;;6.75;100.00
69058;BME280;56128;37.534;-122.308;2023-03-22T06:59:59;99968.88;;;6.72;100.00
69058;BME280;56128;37.534;-122.308;2023-03-22T07:02:26;99986.28;;;6.76;100.00
69058;BME280;56128;37.534;-122.308;2023-03-22T07:04:52;99988.84;;;6.78;100.00
69058;BME280;56128;37.534;-122.308;2023-03-22T07:07:18;99982.66;;;6.77;100.00
69058;BME280;56128;37.534;-122.308;2023-03-22T07:09:44;99997.66;;;6.78;100.00
69058;BME280;56128;37.534;-122.308;2023-03-22T07:12:11;99998.53;;;6.79;100.00
69058;BME280;56128;37.534;-122.308;2023-03-22T07:14:37;100003.63;;;6.82;100.00
69058;BME280;56128;37.534;-122.308;2023-03-22T07:17:03;99996.72;;;6.79;100.00
69058;BME280;56128;37.534;-122.308;2023-03-22T07:19:29;100009.06;;;6.80;100.00
69058;BME280;56128;37.534;-122.308;2023-03-22T07:21:56;100015.44;;;6.78;100.00
69058;BME280;56128;37.534;-122.308;2023-03-22T07:24:22;100015.22;;;6.81;100.00
69058;BME280;56128;37.534;-122.308;2023-03-22T07:26:48;100020.53;;;6.81;100.00
69058;BME280;56128;37.534;-122.308;2023-03-22T07:29:15;100029.25;;;6.83;100.00
69058;BME280;56128;37.534;-122.308;2023-03-22T07:31:41;100033.63;;;6.84;100.00
69058;BME280;56128;37.534;-122.308;2023-03-22T07:34:07;100027.31;;;6.85;100.00
69058;BME280;56128;37.534;-122.308;2023-03-22T07:36:33;100029.00;;;6.86;100.00
69058;BME280;56128;37.534;-122.308;2023-03-22T07:39:00;100032.03;;;6.81;100.00
69058;BME280;56128;37.534;-122.308;2023-03-22T07:41:27;100031.91;;;6.83;100.00
69058;BME280;56128;37.534;-122.308;2023-03-22T07:43:54;100028.50;;;6.81;100.00
69058;BME280;56128;37.534;-122.308;2023-03-22T07:46:21;100034.34;;;6.86;100.00
69058;BME280;56128;37.534;-122.308;2023-03-22T07:48:47;100035.28;;;6.85;100.00
69058;BME280;56128;37.534;-122.308;2023-03-22T07:51:14;100047.63;;;6.86;100.00
69058;BME280;56128;37.534;-122.308;2023-03-22T07:53:40;100036.72;;;6.78;100.00
69058;BME280;56128;37.534;-122.308;2023-03-22T07:56:06;100051.25;;;6.85;100.00
69058;BME280;56128;37.534;-122.308;2023-03-22T07:58:33;100048.59;;;6.85;100.00
69058;BME280;56128;37.534;-122.308;2023-03-22T08:01:06;100051.38;;;6.83;100.00
69058;BME280;56128;37.534;-122.308;2023-03-22T08:03:38;100058.25;;;6.86;100.00
69058;BME280;56128;37.534;-122.308;2023-03-22T08:06:05;100065.28;;;6.87;100.00
69058;BME280;56128;37.534;-122.308;2023-03-22T08:08:36;100064.34;;;6.88;100.00
69058;BME280;56128;37.534;-122.308;2023-03-22T08:11:04;100069.41;;;6.91;100.00
69058;BME280;56128;37.534;-122.308;2023-03-22T08:13:31;100066.75;;;6.91;100.00
69058;BME280;56128;37.534;-122.308;2023-03-22T08:15:58;100071.13;;;6.92;100.00
69058;BME280;56128;37.534;-122.308;2023-03-22T08:18:25;100071.34;;;6.89;100.00
69058;BME280;56128;37.534;-122.308;2023-03-22T08:20:56;100067.31;;;6.83;100.00
69058;BME280;56128;37.534;-122.308;2023-03-22T08:23:23;100071.56;;;6.86;100.00
69058;BME280;56128;37.534;-122.308;2023-03-22T08:25:50;100068.38;;;6.81;100.00
69058;BME280;56128;37.534;-122.308;2023-03-22T08:28:17;100084.84;;;6.86;100.00
69058;BME280;56128;37.534;-122.308;2023-03-22T08:30:45;100085.94;;;6.83;100.00
69058;BME280;56128;37.534;-122.308;2023-03-22T08:33:12;100075.84;;;6.76;100.00
69058;BME280;56128;37.534;-122.308;2023-03-22T08:35:39;100087.00;;;6.81;100.00
69058;BME280;56128;37.534;-122.308;2023-03-22T08:38:05;100075.66;;;6.79;100.00
69058;BME280;56128;37.534;-122.308;2023-03-22T08:40:32;100086.06;;;6.82;100.00
69058;BME280;56128;37.534;-122.308;2023-03-22T08:42:58;100089.16;;;6.76;100.00
69058;BME280;56128;37.534;-122.308;2023-03-22T08:45:25;100102.00;;;6.82;100.00
69058;BME280;56128;37.534;-122.308;2023-03-22T08:47:51;100101.16;;;6.81;100.00
69058;BME280;56128;37.534;-122.308;2023-03-22T08:50:17;100104.16;;;6.77;100.00
69058;BME280;56128;37.534;-122.308;2023-03-22T08:52:44;100108.16;;;6.82;100.00
69058;BME280;56128;37.534;-122.308;2023-03-22T08:55:10;100107.44;;;6.80;100.00
69058;BME280;56128;37.534;-122.308;2023-03-22T08:57:36;100115.41;;;6.80;100.00
69058;BME280;56128;37.534;-122.308;2023-03-22T09:00:06;100116.50;;;6.78;100.00
69058;BME280;56128;37.534;-122.308;2023-03-22T09:02:32;100114.78;;;6.77;100.00
69058;BME280;56128;37.534;-122.308;2023-03-22T09:04:58;100126.69;;;6.84;100.00
69058;BME280;56128;37.534;-122.308;2023-03-22T09:07:25;100139.00;;;6.85;100.00
69058;BME280;56128;37.534;-122.308;2023-03-22T09:09:52;100141.66;;;6.85;100.00
69058;BME280;56128;37.534;-122.308;2023-03-22T09:12:18;100136.56;;;6.82;100.00
69058;BME280;56128;37.534;-122.308;2023-03-22T09:14:44;100136.47;;;6.83;100.00
69058;BME280;56128;37.534;-122.308;2023-03-22T09:17:12;100146.47;;;6.80;100.00
69058;BME280;56128;37.534;-122.308;2023-03-22T09:19:38;100143.72;;;6.81;100.00
69058;BME280;56128;37.534;-122.308;2023-03-22T09:22:05;100141.06;;;6.81;100.00
69058;BME280;56128;37.534;-122.308;2023-03-22T09:24:31;100138.19;;;6.72;100.00
69058;BME280;56128;37.534;-122.308;2023-03-22T09:26:57;100152.00;;;6.77;100.00
69058;BME280;56128;37.534;-122.308;2023-03-22T09:29:24;100145.72;;;6.78;100.00
69058;BME280;56128;37.534;-122.308;2023-03-22T09:31:50;100159.03;;;6.78;100.00
69058;BME280;56128;37.534;-122.308;2023-03-22T09:34:16;100166.06;;;6.79;100.00
69058;BME280;56128;37.534;-122.308;2023-03-22T09:36:42;100170.91;;;6.85;100.00
69058;BME280;56128;37.534;-122.308;2023-03-22T09:39:09;100163.28;;;6.80;100.00
69058;BME280;56128;37.534;-122.308;2023-03-22T09:41:56;100174.03;;;6.79;100.00
69058;BME280;56128;37.534;-122.308;2023-03-22T09:44:44;100180.94;;;6.81;100.00
69058;BME280;56128;37.534;-122.308;2023-03-22T09:47:38;100188.56;;;6.86;100.00
69058;BME280;56128;37.534;-122.308;2023-03-22T09:50:24;100185.06;;;6.86;100.00
69058;BME280;56128;37.534;-122.308;2023-03-22T09:52:52;100193.91;;;6.86;100.00
69058;BME280;56128;37.534;-122.308;2023-03-22T09:55:20;100196.34;;;6.89;100.00
69058;BME280;56128;37.534;-122.308;2023-03-22T10:00:44;100194.13;;;6.83;100.00
69058;BME280;56128;37.534;-122.308;2023-03-22T10:06:11;100203.59;;;6.87;100.00
69058;BME280;56128;37.534;-122.308;2023-03-22T10:09:03;100197.50;;;6.85;100.00
69058;BME280;56128;37.534;-122.308;2023-03-22T10:14:30;100211.78;;;6.84;100.00
69058;BME280;56128;37.534;-122.308;2023-03-22T10:17:00;100214.44;;;6.84;100.00
69058;BME280;56128;37.534;-122.308;2023-03-22T10:19:35;100215.16;;;6.86;100.00
69058;BME280;56128;37.534;-122.308;2023-03-22T10:22:06;100220.72;;;6.83;100.00
69058;BME280;56128;37.534;-122.308;2023-03-22T10:24:37;100220.72;;;6.83;100.00
69058;BME280;56128;37.534;-122.308;2023-03-22T10:27:14;100220.91;;;6.80;100.00
69058;BME280;56128;37.534;-122.308;2023-03-22T10:29:54;100218.38;;;6.78;100.00
69058;BME280;56128;37.534;-122.308;2023-03-22T10:32:39;100222.72;;;6.79;100.00
69058;BME280;56128;37.534;-122.308;2023-03-22T10:35:08;100217.72;;;6.75;100.00
69058;BME280;56128;37.534;-122.308;2023-03-22T10:37:38;100231.66;;;6.78;100.00
69058;BME280;56128;37.534;-122.308;2023-03-22T10:40:06;100229.13;;;6.77;100.00
69058;BME280;56128;37.534;-122.308;2023-03-22T10:42:37;100225.59;;;6.76;100.00
69058;BME280;56128;37.534;-122.308;2023-03-22T10:45:08;100236.03;;;6.79;100.00
69058;BME280;56128;37.534;-122.308;2023-03-22T10:47:47;100243.16;;;6.79;100.00
69058;BME280;56128;37.534;-122.308;2023-03-22T10:50:44;100240.50;;;6.79;100.00
69058;BME280;56128;37.534;-122.308;2023-03-22T10:53:23;100246.56;;;6.81;100.00
69058;BME280;56128;37.534;-122.308;2023-03-22T10:55:51;100244.13;;;6.78;100.00
69058;BME280;56128;37.534;-122.308;2023-03-22T10:58:20;100238.03;;;6.76;100.00
69058;BME280;56128;37.534;-122.308;2023-03-22T11:01:04;100243.91;;;6.81;100.00
69058;BME280;56128;37.534;-122.308;2023-03-22T11:06:14;100243.06;;;6.80;100.00
69058;BME280;56128;37.534;-122.308;2023-03-22T11:11:27;100248.56;;;6.77;100.00
69058;BME280;56128;37.534;-122.308;2023-03-22T11:14:04;100256.47;;;6.79;100.00
69058;BME280;56128;37.534;-122.308;2023-03-22T11:16:54;100256.47;;;6.79;100.00
69058;BME280;56128;37.534;-122.308;2023-03-22T11:19:31;100256.00;;;6.72;100.00
69058;BME280;56128;37.534;-122.308;2023-03-22T11:21:59;100260.91;;;6.78;100.00
69058;BME280;56128;37.534;-122.308;2023-03-22T11:24:28;100258.16;;;6.80;100.00
69058;BME280;56128;37.534;-122.308;2023-03-22T11:29:49;100268.78;;;6.80;100.00
69058;BME280;56128;37.534;-122.308;2023-03-22T11:32:35;100266.88;;;6.82;100.00
69058;BME280;56128;37.534;-122.308;2023-03-22T11:35:22;100264.53;;;6.77;100.00
69058;BME280;56128;37.534;-122.308;2023-03-22T11:37:53;100276.56;;;6.83;100.00
69058;BME280;56128;37.534;-122.308;2023-03-22T11:40:28;100279.22;;;6.83;100.00
69058;BME280;56128;37.534;-122.308;2023-03-22T11:43:21;100278.69;;;6.78;100.00
69058;BME280;56128;37.534;-122.308;2023-03-22T11:45:51;100287.94;;;6.85;100.00
69058;BME280;56128;37.534;-122.308;2023-03-22T11:48:21;100290.06;;;6.80;100.00
69058;BME280;56128;37.534;-122.308;2023-03-22T11:50:51;100287.38;;;6.80;100.00
69058;BME280;56128;37.534;-122.308;2023-03-22T11:53:21;100297.94;;;6.81;100.00
69058;BME280;56128;37.534;-122.308;2023-03-22T11:55:49;100301.56;;;6.80;100.00
69058;BME280;56128;37.534;-122.308;2023-03-22T11:58:41;100312.09;;;6.82;100.00
69058;BME280;56128;37.534;-122.308;2023-03-22T12:01:13;100306.66;;;6.83;100.00
69058;BME280;56128;37.534;-122.308;2023-03-22T12:03:42;100315.50;;;6.84;100.00
69058;BME280;56128;37.534;-122.308;2023-03-22T12:06:38;100324.31;;;6.85;100.00
69058;BME280;56128;37.534;-122.308;2023-03-22T12:11:42;100327.94;;;6.83;100.00
69058;BME280;56128;37.534;-122.308;2023-03-22T12:14:50;100328.81;;;6.84;100.00
69058;BME280;56128;37.534;-122.308;2023-03-22T12:17:37;100325.38;;;6.82;100.00
69058;BME280;56128;37.534;-122.308;2023-03-22T12:23:11;100335.06;;;6.83;100.00
69058;BME280;56128;37.534;-122.308;2023-03-22T12:25:39;100340.28;;;6.85;100.00
69058;BME280;56128;37.534;-122.308;2023-03-22T12:28:14;100339.63;;;6.81;100.00
69058;BME280;56128;37.534;-122.308;2023-03-22T12:30:51;100345.72;;;6.83;100.00
69058;BME280;56128;37.534;-122.308;2023-03-22T12:33:34;100353.38;;;6.88;100.00
69058;BME280;56128;37.534;-122.308;2023-03-22T12:36:04;100350.06;;;6.84;100.00
69058;BME280;56128;37.534;-122.308;2023-03-22T12:38:44;100365.81;;;6.87;100.00
69058;BME280;56128;37.534;-122.308;2023-03-22T12:41:23;100368.59;;;6.86;100.00
69058;BME280;56128;37.534;-122.308;2023-03-22T12:46:32;100367.94;;;6.82;100.00
69058;BME280;56128;37.534;-122.308;2023-03-22T12:49:05;100378.28;;;6.87;100.00
69058;BME280;56128;37.534;-122.308;2023-03-22T12:51:35;100380.28;;;6.83;100.00
69058;BME280;56128;37.534;-122.308;2023-03-22T12:54:03;100388.03;;;6.86;100.00
69058;BME280;56128;37.534;-122.308;2023-03-22T12:56:37;100388.03;;;6.86;100.00
69058;BME280;56128;37.534;-122.308;2023-03-22T12:59:21;100394.13;;;6.88;100.00
69058;BME280;56128;37.534;-122.308;2023-03-22T13:02:12;100394.13;;;6.88;100.00
69058;BME280;56128;37.534;-122.308;2023-03-22T13:15:01;100411.97;;;6.86;100.00
69058;BME280;56128;37.534;-122.308;2023-03-22T13:19:59;100421.47;;;6.90;100.00
69058;BME280;56128;37.534;-122.308;2023-03-22T13:30:46;100434.00;;;6.88;100.00
69058;BME280;56128;37.534;-122.308;2023-03-22T13:35:54;100446.16;;;6.92;100.00
69058;BME280;56128;37.534;-122.308;2023-03-22T13:38:32;100451.56;;;6.91;100.00
69058;BME280;56128;37.534;-122.308;2023-03-22T13:41:23;100464.03;;;6.90;100.00
69058;BME280;56128;37.534;-122.308;2023-03-22T13:43:54;100463.28;;;6.88;100.00
69058;BME280;56128;37.534;-122.308;2023-03-22T13:51:26;100484.34;;;6.91;100.00
69058;BME280;56128;37.534;-122.308;2023-03-22T13:56:56;100499.44;;;6.91;100.00
69058;BME280;56128;37.534;-122.308;2023-03-22T13:59:56;100504.66;;;6.92;100.00
69058;BME280;56128;37.534;-122.308;2023-03-22T14:02:33;100510.94;;;6.91;100.00
69058;BME280;56128;37.534;-122.308;2023-03-22T14:05:12;100506.59;;;6.90;100.00
69058;BME280;56128;37.534;-122.308;2023-03-22T14:07:53;100511.03;;;6.90;100.00
69058;BME280;56128;37.534;-122.308;2023-03-22T14:10:43;100524.22;;;6.91;100.00